Hlavní strana
METAR-TAF:

METAR-TAF

Letiště :

Leuchars, Skotsko

zeměpisná šířka: 56-23N, zeměpisná délka: 002-52W, výška: 12 m

Aktuální stav počasí

Zpráva byla vytvořena před 41 minutami, v 16:50 UTC
Západojihozápadní vítr 13 kt
Teplota 9°C
Vlhkost vzduchu 93%
Tlak 1034 hPa
Viditelnost 10 km a více
Žádná oblačnost pod 1500 m, nevyskytují se cumulonimby.

METAR: EGQL 221650Z 25013KT CAVOK 09/08 Q1034 BLU

Čas: 17:31 (17:31 UTC)

Předpověď počasí

Zpráva byla vytvořena před 4 hodinami a 12 minutami, v 13:19 UTC
Předpověď platná od 22 v 15 UTC do 22 v 24 UTC
Západojihozápadní vítr 9 kt
Viditelnost 10 km a více
Skoro jasno ve výšce 2000 ft
Pravděpodobnost 30% :
Dočasný
od 22 v 19 UTC do 22 v 24 UTC
Polojasno ve výšce 2000 ft

TAF: EGQL 221319Z 2215/2224 25009KT 9999 FEW020 PROB30 TEMPO 2219/2224 SCT020

Stav a předpovědi počasí z více než 4 000 letišť (zprávy METAR a TAF).

Červené a žluté tečky na mapě představují dostupné meteorologické stanice.

Když kurzor umístíte na tečku, zobrazí se název stanice.

Pak kliknutím zobrazíte stav a předpověď počasí.

Chcete-li změnit mapu, kliknutím na zelené tlačítko se znaménkem +mapu přiblížíte, kliknutím na zelené tlačítko se znaménkem – mapu oddálíte a kliknutím na zelené šipky přejdete na sousední mapy.


METAR-TAF: